createdAt,value
2023-01-13T00:00:31.378Z,95779.19
2023-01-13T00:02:59.281Z,95778.44
2023-01-13T00:05:28.304Z,95772.13
2023-01-13T00:07:56.198Z,95772.19
2023-01-13T00:10:24.048Z,95772.56
2023-01-13T00:12:53.448Z,95765.94
2023-01-13T00:15:22.697Z,95761.59
2023-01-13T00:17:50.548Z,95751.72
2023-01-13T00:20:19.161Z,95751.72
2023-01-13T00:22:47.156Z,95747.38
2023-01-13T00:25:14.972Z,95754.91
2023-01-13T00:27:42.839Z,95754.47
2023-01-13T00:30:11.693Z,95747.81
2023-01-13T00:32:40.984Z,95747.47
2023-01-13T00:35:09.399Z,95731.34
2023-01-13T00:37:38.628Z,95737.25
2023-01-13T00:40:07.644Z,95732.94
2023-01-13T00:42:52.860Z,95725.47
2023-01-13T00:45:20.712Z,95722.72
2023-01-13T00:47:50.014Z,95732.25
2023-01-13T00:50:18.007Z,95721.16
2023-01-13T00:52:45.831Z,95719.56
2023-01-13T00:55:13.689Z,95710.94
2023-01-13T00:57:41.502Z,95718.84
2023-01-13T01:00:10.646Z,95718.06
2023-01-13T01:02:38.464Z,95721.22
2023-01-13T01:05:08.608Z,95723.97
2023-01-13T01:07:36.559Z,95715.38
2023-01-13T01:10:04.814Z,95725.22
2023-01-13T01:12:32.631Z,95727.09
2023-01-13T01:15:00.482Z,95722.03
2023-01-13T01:17:29.308Z,95720.06
2023-01-13T01:19:57.191Z,95726.03
2023-01-13T01:22:26.423Z,95714.22
2023-01-13T01:24:54.287Z,95724.03
2023-01-13T01:27:22.314Z,95725.22
2023-01-13T01:29:50.199Z,95716.19
2023-01-13T01:32:17.999Z,95720.91
2023-01-13T01:34:45.821Z,95712.63
2023-01-13T01:37:13.677Z,95711.03
2023-01-13T01:39:42.875Z,95717.34
2023-01-13T01:42:34.195Z,95706.78
2023-01-13T01:45:04.573Z,95705.53
2023-01-13T01:47:33.777Z,95697.69
2023-01-13T01:50:04.414Z,95689.00
2023-01-13T01:52:38.608Z,95683.53
2023-01-13T01:55:14.119Z,95679.25
2023-01-13T01:57:49.191Z,95674.91
2023-01-13T02:00:17.515Z,95681.19
2023-01-13T02:02:49.467Z,95679.63
2023-01-13T02:05:17.611Z,95668.97
2023-01-13T02:07:49.323Z,95670.19
2023-01-13T02:10:23.351Z,95672.53
2023-01-13T02:12:54.147Z,95667.81
2023-01-13T02:15:28.180Z,95661.53
2023-01-13T02:18:13.042Z,95664.28
2023-01-13T02:21:13.968Z,95658.75
2023-01-13T02:24:33.379Z,95661.50
2023-01-13T02:27:45.127Z,95656.81
2023-01-13T02:30:48.956Z,95635.59
2023-01-13T02:33:31.187Z,95643.41
2023-01-13T02:36:05.454Z,95637.16
2023-01-13T02:38:38.232Z,95635.63
2023-01-13T02:41:31.102Z,95633.25
2023-01-13T02:44:10.580Z,95634.44
2023-01-13T02:46:49.847Z,95620.75
2023-01-13T02:49:28.251Z,95616.34
2023-01-13T02:52:05.404Z,95615.53
2023-01-13T02:54:39.143Z,95620.25
2023-01-13T02:57:12.697Z,95628.50
2023-01-13T02:59:44.207Z,95622.63
2023-01-13T03:02:17.667Z,95627.72
2023-01-13T03:04:52.227Z,95628.91
2023-01-13T03:07:57.493Z,95632.47
2023-01-13T03:10:37.197Z,95627.34
2023-01-13T03:13:22.137Z,95630.09
2023-01-13T03:16:01.046Z,95624.59
2023-01-13T03:18:46.641Z,95629.31
2023-01-13T03:21:22.534Z,95639.13
2023-01-13T03:23:55.015Z,95634.41
2023-01-13T03:26:32.084Z,95626.56
2023-01-13T03:29:10.034Z,95623.41
2023-01-13T03:31:47.909Z,95618.66
2023-01-13T03:34:23.462Z,95617.06
2023-01-13T03:36:56.927Z,95622.19
2023-01-13T03:39:33.136Z,95606.84
2023-01-13T03:42:08.802Z,95603.28
2023-01-13T03:44:42.443Z,95609.22
2023-01-13T03:47:20.716Z,95608.78
2023-01-13T03:49:57.177Z,95593.88
2023-01-13T03:52:31.177Z,95599.00
2023-01-13T03:55:06.915Z,95599.03
2023-01-13T03:57:40.875Z,95601.41
2023-01-13T04:00:14.469Z,95593.91
2023-01-13T04:02:51.551Z,95601.00
2023-01-13T04:05:21.242Z,95593.53
2023-01-13T04:08:02.087Z,95599.47
2023-01-13T04:10:37.358Z,95600.25
2023-01-13T04:13:11.593Z,95598.66
2023-01-13T04:15:43.347Z,95593.53
2023-01-13T04:18:16.846Z,95589.25
2023-01-13T04:20:48.741Z,95592.78
2023-01-13T04:23:17.673Z,95585.34
2023-01-13T04:25:47.265Z,95593.22
2023-01-13T04:28:16.499Z,95595.56
2023-01-13T04:30:45.065Z,95603.03
2023-01-13T04:33:14.528Z,95588.47
2023-01-13T04:35:43.086Z,95584.56
2023-01-13T04:38:14.771Z,95580.19
2023-01-13T04:40:43.441Z,95586.50
2023-01-13T04:43:11.539Z,95585.34
2023-01-13T04:45:39.875Z,95588.47
2023-01-13T04:48:07.972Z,95582.16
2023-01-13T04:50:36.151Z,95590.03
2023-01-13T04:53:04.145Z,95580.19
2023-01-13T04:55:33.808Z,95573.91
2023-01-13T04:58:06.068Z,95577.44
2023-01-13T05:00:34.365Z,95575.84
2023-01-13T05:03:02.853Z,95568.78
2023-01-13T05:05:32.545Z,95579.03
2023-01-13T05:08:00.790Z,95586.06
2023-01-13T05:10:29.175Z,95577.44
2023-01-13T05:13:15.600Z,95574.69
2023-01-13T05:16:01.791Z,95577.06
2023-01-13T05:18:31.818Z,95589.28
2023-01-13T05:20:59.862Z,95584.56
2023-01-13T05:23:45.975Z,95595.19
2023-01-13T05:26:13.885Z,95605.03
2023-01-13T05:28:43.057Z,95590.91
2023-01-13T05:31:12.133Z,95590.91
2023-01-13T05:33:40.057Z,95597.22
2023-01-13T05:36:08.670Z,95597.22
2023-01-13T05:38:36.474Z,95596.78
2023-01-13T05:41:21.815Z,95592.88
2023-01-13T05:43:51.027Z,95594.09
2023-01-13T05:46:18.952Z,95586.22
2023-01-13T05:48:47.203Z,95600.41
2023-01-13T05:51:15.159Z,95596.84
2023-01-13T05:53:43.150Z,95605.53
2023-01-13T05:56:12.208Z,95612.56
2023-01-13T05:58:40.273Z,95602.34
2023-01-13T06:01:10.979Z,95600.41
2023-01-13T06:03:39.303Z,95603.53
2023-01-13T06:06:08.922Z,95587.78
2023-01-13T06:08:39.413Z,95594.09
2023-01-13T06:11:07.676Z,95585.47
2023-01-13T06:13:35.595Z,95594.91
2023-01-13T06:16:03.731Z,95590.13
2023-01-13T06:18:33.028Z,95593.66
2023-01-13T06:21:00.898Z,95595.63
2023-01-13T06:23:29.719Z,95590.91
2023-01-13T06:26:07.011Z,95586.16
2023-01-13T06:28:34.891Z,95589.69
2023-01-13T06:31:08.615Z,95577.50
2023-01-13T06:33:40.771Z,95581.84
2023-01-13T06:36:14.813Z,95580.69
2023-01-13T06:38:48.517Z,95574.41
2023-01-13T06:41:18.088Z,95579.53
2023-01-13T06:43:44.956Z,95575.94
2023-01-13T06:46:12.803Z,95573.59
2023-01-13T06:48:42.242Z,95579.09
2023-01-13T06:51:10.161Z,95575.97
2023-01-13T06:53:38.046Z,95581.47
2023-01-13T06:56:06.136Z,95572.81
2023-01-13T06:58:34.000Z,95584.63
2023-01-13T07:01:02.315Z,95580.69
2023-01-13T07:03:30.319Z,95564.19
2023-01-13T07:06:00.457Z,95566.50
2023-01-13T07:08:28.705Z,95581.06
2023-01-13T07:10:56.538Z,95585.41
2023-01-13T07:13:42.007Z,95585.03
2023-01-13T07:16:10.955Z,95587.78
2023-01-13T07:18:38.985Z,95592.50
2023-01-13T07:21:11.922Z,95594.09
2023-01-13T07:23:42.041Z,95589.38
2023-01-13T07:26:10.979Z,95587.44
2023-01-13T07:28:39.871Z,95590.97
2023-01-13T07:31:15.473Z,95603.94
2023-01-13T07:33:43.320Z,95600.03
2023-01-13T07:36:13.044Z,95604.78
2023-01-13T07:38:41.370Z,95601.63
2023-01-13T07:41:31.036Z,95589.81
2023-01-13T07:44:00.216Z,95586.69
2023-01-13T07:46:28.314Z,95592.59
2023-01-13T07:48:56.206Z,95591.41
2023-01-13T07:51:25.513Z,95600.06
2023-01-13T07:53:53.374Z,95591.03
2023-01-13T07:56:21.727Z,95592.97
2023-01-13T07:58:52.885Z,95589.44
2023-01-13T08:01:22.398Z,95575.66
2023-01-13T08:03:50.375Z,95581.59
2023-01-13T08:06:18.769Z,95568.19
2023-01-13T08:08:48.022Z,95577.66
2023-01-13T08:11:15.939Z,95586.31
2023-01-13T08:13:43.808Z,95585.13
2023-01-13T08:16:13.799Z,95580.84
2023-01-13T08:18:43.212Z,95582.78
2023-01-13T08:21:13.818Z,95581.63
2023-01-13T08:23:42.619Z,95591.47
2023-01-13T08:26:15.004Z,95602.09
2023-01-13T08:28:43.063Z,95597.38
2023-01-13T08:31:16.165Z,95577.69
2023-01-13T08:33:44.726Z,95580.06
2023-01-13T08:36:13.200Z,95583.22
2023-01-13T08:38:42.185Z,95584.78
2023-01-13T08:41:12.660Z,95601.75
2023-01-13T08:43:40.973Z,95603.72
2023-01-13T08:46:08.969Z,95604.50
2023-01-13T08:48:37.131Z,95611.59
2023-01-13T08:51:07.185Z,95615.53
2023-01-13T08:53:35.358Z,95610.78
2023-01-13T08:56:03.427Z,95617.88
2023-01-13T08:58:32.627Z,95626.94
2023-01-13T09:01:06.249Z,95626.94
2023-01-13T09:03:34.303Z,95622.22
2023-01-13T09:06:02.419Z,95610.81
2023-01-13T09:08:30.313Z,95613.19
2023-01-13T09:10:58.600Z,95613.16
2023-01-13T09:13:25.645Z,95608.84
2023-01-13T09:15:56.722Z,95617.13
2023-01-13T09:18:24.920Z,95618.31
2023-01-13T09:20:52.879Z,95612.78
2023-01-13T09:23:20.756Z,95621.06
2023-01-13T09:25:49.261Z,95621.06
2023-01-13T09:28:17.176Z,95614.78
2023-01-13T09:30:45.071Z,95627.41
2023-01-13T09:33:31.868Z,95621.47
2023-01-13T09:36:01.075Z,95621.88
2023-01-13T09:38:28.980Z,95602.94
2023-01-13T09:40:57.089Z,95608.06
2023-01-13T09:43:52.204Z,95614.78
2023-01-13T09:46:47.431Z,95624.25
2023-01-13T09:49:22.129Z,95624.22
2023-01-13T09:51:59.525Z,95627.00
2023-01-13T09:54:34.677Z,95629.75
2023-01-13T09:57:02.978Z,95621.06
2023-01-13T09:59:36.495Z,95639.97
2023-01-13T10:02:25.801Z,95638.41
2023-01-13T10:05:29.416Z,95637.63
2023-01-13T10:08:04.583Z,95634.44
2023-01-13T10:10:39.689Z,95643.91
2023-01-13T10:13:19.993Z,95636.00
2023-01-13T10:16:02.950Z,95644.66
2023-01-13T10:18:45.510Z,95638.38
2023-01-13T10:21:38.634Z,95621.84
2023-01-13T10:24:17.778Z,95627.75
2023-01-13T10:27:00.478Z,95623.44
2023-01-13T10:29:30.257Z,95630.09
2023-01-13T10:32:00.807Z,95634.06
2023-01-13T10:34:30.244Z,95641.50
2023-01-13T10:37:02.941Z,95652.91
2023-01-13T10:39:40.827Z,95661.94
2023-01-13T10:42:14.834Z,95689.00
2023-01-13T10:44:54.495Z,95697.03
2023-01-13T10:47:26.041Z,95696.16
2023-01-13T10:50:20.011Z,95692.13
2023-01-13T10:53:02.600Z,95687.44
2023-01-13T10:55:33.282Z,95683.50
2023-01-13T10:58:14.211Z,95686.13
2023-01-13T11:00:42.287Z,95688.03
2023-01-13T11:03:19.573Z,95683.06
2023-01-13T11:05:55.370Z,95685.78
2023-01-13T11:08:27.745Z,95686.94
2023-01-13T11:10:58.235Z,95695.19
2023-01-13T11:13:34.244Z,95694.84
2023-01-13T11:16:12.638Z,95688.22
2023-01-13T11:19:02.057Z,95687.44
2023-01-13T11:21:37.543Z,95683.53
2023-01-13T11:24:16.521Z,95675.66
2023-01-13T11:26:52.508Z,95676.78
2023-01-13T11:29:31.127Z,95674.09
2023-01-13T11:32:10.540Z,95674.94
2023-01-13T11:34:41.840Z,95676.50
2023-01-13T11:37:19.148Z,95676.09
2023-01-13T11:39:56.846Z,95679.63
2023-01-13T11:42:31.078Z,95683.94
2023-01-13T11:45:13.449Z,95679.59
2023-01-13T11:47:41.359Z,95690.19
2023-01-13T11:50:19.526Z,95686.63
2023-01-13T11:53:05.636Z,95688.16
2023-01-13T11:55:50.565Z,95687.41
2023-01-13T11:58:49.774Z,95680.31
2023-01-13T12:01:34.543Z,95676.00
2023-01-13T12:04:22.159Z,95671.63
2023-01-13T12:06:59.930Z,95684.19
2023-01-13T12:09:44.544Z,95681.84
2023-01-13T12:12:32.934Z,95690.53
2023-01-13T12:15:39.448Z,95674.03
2023-01-13T12:18:33.629Z,95688.22
2023-01-13T12:21:16.416Z,95678.84
2023-01-13T12:24:04.539Z,95676.94
2023-01-13T12:26:38.729Z,95667.13
2023-01-13T12:29:13.678Z,95679.72
2023-01-13T12:31:44.626Z,95670.28
2023-01-13T12:34:35.195Z,95676.97
2023-01-13T12:37:17.131Z,95678.53
2023-01-13T12:40:07.219Z,95672.25
2023-01-13T12:43:03.798Z,95679.72
2023-01-13T12:45:34.534Z,95670.72
2023-01-13T12:48:02.854Z,95677.47
2023-01-13T12:50:43.794Z,95679.06
2023-01-13T12:53:44.728Z,95689.31
2023-01-13T12:56:40.718Z,95678.19
2023-01-13T12:59:36.479Z,95699.41
2023-01-13T13:02:30.928Z,95699.34
2023-01-13T13:05:05.118Z,95713.47
2023-01-13T13:07:42.546Z,95711.09
2023-01-13T13:10:20.401Z,95712.53
2023-01-13T13:13:37.718Z,95707.00
2023-01-13T13:16:38.135Z,95721.16
2023-01-13T13:19:44.166Z,95698.34
2023-01-13T13:22:39.023Z,95696.78
2023-01-13T13:25:30.747Z,95704.63
2023-01-13T13:28:20.059Z,95694.78
2023-01-13T13:31:06.844Z,95711.00
2023-01-13T13:33:53.074Z,95716.84
2023-01-13T13:36:47.333Z,95722.75
2023-01-13T13:39:42.234Z,95710.16
2023-01-13T13:42:49.413Z,95707.81
2023-01-13T13:45:39.177Z,95733.34
2023-01-13T13:48:22.852Z,95736.94
2023-01-13T13:50:55.293Z,95746.34
2023-01-13T13:53:26.928Z,95753.09
2023-01-13T13:55:59.817Z,95758.59
2023-01-13T13:58:30.841Z,95756.31
2023-01-13T14:01:00.783Z,95749.63
2023-01-13T14:03:33.314Z,95740.16
2023-01-13T14:06:04.175Z,95749.19
2023-01-13T14:08:36.463Z,95756.63
2023-01-13T14:11:27.199Z,95764.09
2023-01-13T14:14:02.891Z,95777.84
2023-01-13T14:16:31.877Z,95773.06
2023-01-13T14:19:00.873Z,95773.84
2023-01-13T14:21:30.818Z,95776.94
2023-01-13T14:24:04.604Z,95777.75
2023-01-13T14:26:33.918Z,95772.25
2023-01-13T14:29:03.773Z,95784.81
2023-01-13T14:31:33.756Z,95796.22
2023-01-13T14:34:32.213Z,95793.88
2023-01-13T14:36:52.942Z,95817.81
2023-01-13T14:39:38.706Z,95820.03
2023-01-13T14:42:13.866Z,95818.88
2023-01-13T14:44:46.886Z,95830.19
2023-01-13T14:47:22.995Z,95833.25
2023-01-13T14:50:04.564Z,95834.75
2023-01-13T14:52:35.997Z,95838.75
2023-01-13T14:55:24.815Z,95841.41
2023-01-13T14:57:54.205Z,95833.94
2023-01-13T15:00:26.663Z,95826.03
2023-01-13T15:03:07.234Z,95835.00
2023-01-13T15:05:48.306Z,95840.19
2023-01-13T15:08:40.463Z,95841.78
2023-01-13T15:11:20.507Z,95852.66
2023-01-13T15:13:59.106Z,95849.41
2023-01-13T15:16:29.331Z,95851.44
2023-01-13T15:18:57.683Z,95859.59
2023-01-13T15:21:26.135Z,95848.59
2023-01-13T15:23:54.048Z,95866.53
2023-01-13T15:26:25.711Z,95869.72
2023-01-13T15:28:57.222Z,95868.56
2023-01-13T15:31:26.587Z,95883.88
2023-01-13T15:33:54.774Z,95887.88
2023-01-13T15:36:28.191Z,95894.19
2023-01-13T15:38:56.937Z,95891.09
2023-01-13T15:41:43.203Z,95913.91
2023-01-13T15:44:32.460Z,95909.09
2023-01-13T15:47:03.885Z,95908.91
2023-01-13T15:49:37.520Z,95926.47
2023-01-13T15:52:13.152Z,95932.19
2023-01-13T15:54:41.018Z,95920.25
2023-01-13T15:57:10.139Z,95921.00
2023-01-13T15:59:39.540Z,95929.44
2023-01-13T16:02:15.928Z,95921.03
2023-01-13T16:04:43.840Z,95933.00
2023-01-13T16:07:16.120Z,95946.22
2023-01-13T16:09:45.043Z,95947.63
2023-01-13T16:12:12.951Z,95949.03
2023-01-13T16:14:42.367Z,95956.13
2023-01-13T16:17:16.622Z,95957.16
2023-01-13T16:19:45.538Z,95951.38
2023-01-13T16:22:14.499Z,95955.34
2023-01-13T16:24:42.836Z,95961.63
2023-01-13T16:27:16.878Z,95962.94
2023-01-13T16:29:47.216Z,95974.50
2023-01-13T16:32:15.923Z,95977.69
2023-01-13T16:34:44.845Z,95989.44
2023-01-13T16:37:21.057Z,95978.78
2023-01-13T16:39:49.072Z,95987.72
2023-01-13T16:42:17.073Z,95988.03
2023-01-13T16:44:48.299Z,95992.34
2023-01-13T16:47:18.435Z,95997.69
2023-01-13T16:49:47.359Z,95991.41
2023-01-13T16:52:15.285Z,96001.13
2023-01-13T16:54:43.295Z,95999.94
2023-01-13T16:57:14.173Z,96004.47
2023-01-13T16:59:42.123Z,96002.44
2023-01-13T17:02:16.299Z,96017.47
2023-01-13T17:04:44.189Z,96018.59
2023-01-13T17:07:17.749Z,96030.13
2023-01-13T17:09:45.641Z,96035.28
2023-01-13T17:12:13.557Z,96027.63
2023-01-13T17:14:43.375Z,96032.75
2023-01-13T17:17:22.992Z,96040.41
2023-01-13T17:19:52.623Z,96046.22
2023-01-13T17:22:21.654Z,96040.41
2023-01-13T17:24:50.113Z,96034.75
2023-01-13T17:27:18.710Z,96038.81
2023-01-13T17:29:46.921Z,96047.75
2023-01-13T17:32:19.331Z,96048.75
2023-01-13T17:34:47.527Z,96057.56
2023-01-13T17:37:16.401Z,96053.59
2023-01-13T17:39:46.792Z,96041.91
2023-01-13T17:42:15.739Z,96049.78
2023-01-13T17:44:43.941Z,96050.63
2023-01-13T17:47:11.944Z,96058.72
2023-01-13T17:49:41.437Z,96064.94
2023-01-13T17:52:09.325Z,96068.13
2023-01-13T17:54:37.283Z,96065.66
2023-01-13T17:57:05.176Z,96069.56
2023-01-13T17:59:33.567Z,96073.50
2023-01-13T18:02:01.779Z,96084.56
2023-01-13T18:04:30.886Z,96071.22
2023-01-13T18:07:00.127Z,96065.00
2023-01-13T18:09:28.126Z,96071.00
2023-01-13T18:11:56.034Z,96069.84
2023-01-13T18:14:23.970Z,96079.50
2023-01-13T18:16:52.963Z,96075.16
2023-01-13T18:19:38.453Z,96088.88
2023-01-13T18:22:25.038Z,96083.66
2023-01-13T18:25:10.348Z,96087.28
2023-01-13T18:27:41.173Z,96098.88
2023-01-13T18:30:10.868Z,96093.31
2023-01-13T18:32:39.053Z,96089.06
2023-01-13T18:35:10.380Z,96085.69
2023-01-13T18:37:42.143Z,96096.66
2023-01-13T18:40:12.672Z,96097.09
2023-01-13T18:42:57.884Z,96090.38
2023-01-13T18:45:28.090Z,96084.53
2023-01-13T18:47:58.174Z,96078.47
2023-01-13T18:50:27.129Z,96087.56
2023-01-13T18:52:57.238Z,96096.78
2023-01-13T18:55:28.472Z,96103.41
2023-01-13T18:57:56.878Z,96097.94
2023-01-13T19:00:26.810Z,96097.84
2023-01-13T19:05:35.366Z,96099.25
2023-01-13T19:08:05.198Z,96103.13
2023-01-13T19:10:33.088Z,96110.56
2023-01-13T19:13:01.744Z,96114.09
2023-01-13T19:15:29.753Z,96122.66
2023-01-13T19:17:57.766Z,96124.69
2023-01-13T19:20:25.720Z,96132.47
2023-01-13T19:22:54.578Z,96136.97
2023-01-13T19:25:24.003Z,96134.31
2023-01-13T19:27:51.931Z,96135.91
2023-01-13T19:30:20.291Z,96135.09
2023-01-13T19:32:48.198Z,96137.16
2023-01-13T19:35:17.764Z,96145.00
2023-01-13T19:37:45.821Z,96142.97
2023-01-13T19:40:14.629Z,96153.94
2023-01-13T19:43:03.031Z,96140.56
2023-01-13T19:45:33.681Z,96162.84
2023-01-13T19:48:04.940Z,96162.78
2023-01-13T19:50:37.030Z,96159.84
2023-01-13T19:53:04.942Z,96164.50
2023-01-13T19:55:32.849Z,96174.78
2023-01-13T19:58:03.452Z,96172.66
2023-01-13T20:00:31.381Z,96176.53
2023-01-13T20:03:03.379Z,96191.13
2023-01-13T20:05:31.704Z,96190.38
2023-01-13T20:07:59.616Z,96180.47
2023-01-13T20:10:30.351Z,96192.75
2023-01-13T20:12:58.326Z,96195.78
2023-01-13T20:15:27.709Z,96185.75
2023-01-13T20:17:57.316Z,96181.19
2023-01-13T20:20:26.331Z,96189.41
2023-01-13T20:22:54.780Z,96178.88
2023-01-13T20:25:22.688Z,96190.91
2023-01-13T20:27:50.774Z,96197.09
2023-01-13T20:30:18.725Z,96205.31
2023-01-13T20:32:48.001Z,96202.56
2023-01-13T20:35:16.695Z,96213.56
2023-01-13T20:37:44.708Z,96204.75
2023-01-13T20:40:16.182Z,96210.75
2023-01-13T20:42:45.086Z,96224.41
2023-01-13T20:45:17.448Z,96222.72
2023-01-13T20:47:47.324Z,96223.06
2023-01-13T20:50:16.153Z,96227.06
2023-01-13T20:52:44.391Z,96238.81
2023-01-13T20:55:13.316Z,96254.00
2023-01-13T20:57:41.457Z,96243.88
2023-01-13T21:00:11.266Z,96244.69
2023-01-13T21:02:40.987Z,96263.16
2023-01-13T21:05:10.391Z,96256.47
2023-01-13T21:07:38.437Z,96263.50
2023-01-13T21:10:07.104Z,96266.97
2023-01-13T21:12:52.531Z,96267.44
2023-01-13T21:15:21.976Z,96273.63
2023-01-13T21:18:09.916Z,96270.47
2023-01-13T21:20:40.338Z,96273.88
2023-01-13T21:23:10.673Z,96281.25
2023-01-13T21:25:39.856Z,96285.16
2023-01-13T21:28:10.299Z,96285.78
2023-01-13T21:30:39.068Z,96291.34
2023-01-13T21:33:07.032Z,96284.03
2023-01-13T21:35:38.173Z,96288.19
2023-01-13T21:38:07.466Z,96298.97
2023-01-13T21:40:35.427Z,96292.06
2023-01-13T21:43:20.646Z,96297.72
2023-01-13T21:46:06.004Z,96304.66
2023-01-13T21:48:34.111Z,96302.31
2023-01-13T21:51:02.417Z,96303.03
2023-01-13T21:53:31.732Z,96295.25
2023-01-13T21:55:59.607Z,96314.09
2023-01-13T21:58:27.437Z,96313.56
2023-01-13T22:00:55.489Z,96310.56
2023-01-13T22:03:23.399Z,96321.53
2023-01-13T22:05:55.631Z,96330.13
2023-01-13T22:08:23.596Z,96333.91
2023-01-13T22:10:58.434Z,96331.50
2023-01-13T22:13:44.558Z,96334.44
2023-01-13T22:16:12.562Z,96327.47
2023-01-13T22:18:40.444Z,96337.38
2023-01-13T22:21:08.984Z,96340.38
2023-01-13T22:23:36.909Z,96339.06
2023-01-13T22:26:08.093Z,96338.88
2023-01-13T22:28:40.942Z,96339.06
2023-01-13T22:31:10.841Z,96338.41
2023-01-13T22:33:39.995Z,96343.38
2023-01-13T22:36:09.097Z,96348.97
2023-01-13T22:38:37.384Z,96355.97
2023-01-13T22:41:09.014Z,96351.53
2023-01-13T22:43:38.389Z,96359.84
2023-01-13T22:46:08.394Z,96354.88
2023-01-13T22:48:36.520Z,96352.66
2023-01-13T22:51:09.863Z,96361.88
2023-01-13T22:53:38.764Z,96368.75
2023-01-13T22:56:09.364Z,96363.28
2023-01-13T22:58:37.255Z,96357.69
2023-01-13T23:01:09.732Z,96368.59
2023-01-13T23:03:37.760Z,96359.56
2023-01-13T23:06:06.261Z,96356.81
2023-01-13T23:08:34.078Z,96356.09
2023-01-13T23:11:03.178Z,96360.69
2023-01-13T23:13:32.643Z,96363.66
2023-01-13T23:16:03.353Z,96351.41
2023-01-13T23:18:31.680Z,96350.88
2023-01-13T23:21:04.736Z,96343.56
2023-01-13T23:23:33.984Z,96351.25
2023-01-13T23:26:01.965Z,96355.13
2023-01-13T23:28:31.151Z,96355.84
2023-01-13T23:31:00.524Z,96355.84
2023-01-13T23:33:28.423Z,96360.28
2023-01-13T23:35:57.261Z,96368.03
2023-01-13T23:38:25.866Z,96373.97
2023-01-13T23:40:53.707Z,96380.94
2023-01-13T23:43:21.727Z,96378.75
2023-01-13T23:45:49.844Z,96378.03
2023-01-13T23:48:19.451Z,96388.19
2023-01-13T23:50:57.840Z,96385.13
2023-01-13T23:53:30.989Z,96393.59
2023-01-13T23:55:59.418Z,96388.38
2023-01-13T23:58:27.431Z,96392.97
